sensor_id;sensor_type;location;lat;lon;timestamp;temperature;humidity
37788;DHT22;23627;53.302;-6.362;2023-12-20T00:00:59;7.10;99.90
37788;DHT22;23627;53.302;-6.362;2023-12-20T00:03:25;7.10;99.90
37788;DHT22;23627;53.302;-6.362;2023-12-20T00:05:50;7.10;99.90
37788;DHT22;23627;53.302;-6.362;2023-12-20T00:08:16;7.10;99.90
37788;DHT22;23627;53.302;-6.362;2023-12-20T00:10:45;7.10;99.90
37788;DHT22;23627;53.302;-6.362;2023-12-20T00:13:11;7.10;99.90
37788;DHT22;23627;53.302;-6.362;2023-12-20T00:15:37;7.10;99.90
37788;DHT22;23627;53.302;-6.362;2023-12-20T00:18:03;7.10;99.90
37788;DHT22;23627;53.302;-6.362;2023-12-20T00:20:28;7.10;99.90
37788;DHT22;23627;53.302;-6.362;2023-12-20T00:22:56;7.10;99.90
37788;DHT22;23627;53.302;-6.362;2023-12-20T00:25:23;7.10;99.90
37788;DHT22;23627;53.302;-6.362;2023-12-20T00:27:49;7.10;99.90
37788;DHT22;23627;53.302;-6.362;2023-12-20T00:30:14;7.10;99.90
37788;DHT22;23627;53.302;-6.362;2023-12-20T00:32:40;7.10;99.90
37788;DHT22;23627;53.302;-6.362;2023-12-20T00:35:15;7.10;99.90
37788;DHT22;23627;53.302;-6.362;2023-12-20T00:37:41;7.10;99.90
37788;DHT22;23627;53.302;-6.362;2023-12-20T00:40:07;7.10;99.90
37788;DHT22;23627;53.302;-6.362;2023-12-20T00:42:33;7.10;99.90
37788;DHT22;23627;53.302;-6.362;2023-12-20T00:44:59;7.10;99.90
37788;DHT22;23627;53.302;-6.362;2023-12-20T00:47:25;7.10;99.90
37788;DHT22;23627;53.302;-6.362;2023-12-20T00:49:51;7.10;99.90
37788;DHT22;23627;53.302;-6.362;2023-12-20T00:52:17;7.10;99.90
37788;DHT22;23627;53.302;-6.362;2023-12-20T00:54:43;7.10;99.90
37788;DHT22;23627;53.302;-6.362;2023-12-20T00:57:09;7.10;99.90
37788;DHT22;23627;53.302;-6.362;2023-12-20T00:59:35;7.10;99.90
37788;DHT22;23627;53.302;-6.362;2023-12-20T01:02:00;7.10;99.90
37788;DHT22;23627;53.302;-6.362;2023-12-20T01:04:26;7.10;99.90
37788;DHT22;23627;53.302;-6.362;2023-12-20T01:06:52;7.10;99.90
37788;DHT22;23627;53.302;-6.362;2023-12-20T01:09:19;7.10;99.90
37788;DHT22;23627;53.302;-6.362;2023-12-20T01:11:44;7.10;99.90
37788;DHT22;23627;53.302;-6.362;2023-12-20T01:14:12;7.10;99.90
37788;DHT22;23627;53.302;-6.362;2023-12-20T01:16:37;7.10;99.90
37788;DHT22;23627;53.302;-6.362;2023-12-20T01:19:03;7.10;99.90
37788;DHT22;23627;53.302;-6.362;2023-12-20T01:21:29;7.10;99.90
37788;DHT22;23627;53.302;-6.362;2023-12-20T01:23:55;7.10;99.90
37788;DHT22;23627;53.302;-6.362;2023-12-20T01:26:21;7.10;99.90
37788;DHT22;23627;53.302;-6.362;2023-12-20T01:28:47;7.20;99.90
37788;DHT22;23627;53.302;-6.362;2023-12-20T01:31:13;7.20;99.90
37788;DHT22;23627;53.302;-6.362;2023-12-20T01:33:38;7.10;99.90
37788;DHT22;23627;53.302;-6.362;2023-12-20T01:36:04;7.10;99.90
37788;DHT22;23627;53.302;-6.362;2023-12-20T01:38:30;7.20;99.90
37788;DHT22;23627;53.302;-6.362;2023-12-20T01:40:56;7.10;99.90
37788;DHT22;23627;53.302;-6.362;2023-12-20T01:43:21;7.20;99.90
37788;DHT22;23627;53.302;-6.362;2023-12-20T01:45:47;7.20;99.90
37788;DHT22;23627;53.302;-6.362;2023-12-20T01:48:15;7.20;99.90
37788;DHT22;23627;53.302;-6.362;2023-12-20T01:50:42;7.20;99.90
37788;DHT22;23627;53.302;-6.362;2023-12-20T01:53:11;7.20;99.90
37788;DHT22;23627;53.302;-6.362;2023-12-20T01:55:39;7.20;99.90
37788;DHT22;23627;53.302;-6.362;2023-12-20T01:58:07;7.20;99.90
37788;DHT22;23627;53.302;-6.362;2023-12-20T02:00:33;7.20;99.90
37788;DHT22;23627;53.302;-6.362;2023-12-20T02:03:02;7.20;99.90
37788;DHT22;23627;53.302;-6.362;2023-12-20T02:05:32;7.20;99.90
37788;DHT22;23627;53.302;-6.362;2023-12-20T02:07:58;7.20;99.90
37788;DHT22;23627;53.302;-6.362;2023-12-20T02:10:24;7.20;99.90
37788;DHT22;23627;53.302;-6.362;2023-12-20T02:12:50;7.20;99.90
37788;DHT22;23627;53.302;-6.362;2023-12-20T02:15:16;7.20;99.90
37788;DHT22;23627;53.302;-6.362;2023-12-20T02:17:42;7.30;99.90
37788;DHT22;23627;53.302;-6.362;2023-12-20T02:20:08;7.30;99.90
37788;DHT22;23627;53.302;-6.362;2023-12-20T02:22:34;7.30;99.90
37788;DHT22;23627;53.302;-6.362;2023-12-20T02:25:00;7.30;99.90
37788;DHT22;23627;53.302;-6.362;2023-12-20T02:27:28;7.30;99.90
37788;DHT22;23627;53.302;-6.362;2023-12-20T02:29:54;7.30;99.90
37788;DHT22;23627;53.302;-6.362;2023-12-20T02:32:21;7.30;99.90
37788;DHT22;23627;53.302;-6.362;2023-12-20T02:34:48;7.30;99.90
37788;DHT22;23627;53.302;-6.362;2023-12-20T02:37:13;7.30;99.90
37788;DHT22;23627;53.302;-6.362;2023-12-20T02:39:39;7.40;99.90
37788;DHT22;23627;53.302;-6.362;2023-12-20T02:42:05;7.40;99.90
37788;DHT22;23627;53.302;-6.362;2023-12-20T02:44:30;7.40;99.90
37788;DHT22;23627;53.302;-6.362;2023-12-20T02:46:56;7.40;99.90
37788;DHT22;23627;53.302;-6.362;2023-12-20T02:49:22;7.40;99.90
37788;DHT22;23627;53.302;-6.362;2023-12-20T02:51:47;7.40;99.90
37788;DHT22;23627;53.302;-6.362;2023-12-20T02:54:13;7.40;99.90
37788;DHT22;23627;53.302;-6.362;2023-12-20T02:56:39;7.40;99.90
37788;DHT22;23627;53.302;-6.362;2023-12-20T02:59:05;7.50;99.90
37788;DHT22;23627;53.302;-6.362;2023-12-20T03:01:31;7.40;99.90
37788;DHT22;23627;53.302;-6.362;2023-12-20T03:03:57;7.40;99.90
37788;DHT22;23627;53.302;-6.362;2023-12-20T03:06:23;7.50;99.90
37788;DHT22;23627;53.302;-6.362;2023-12-20T03:08:49;7.50;99.90
37788;DHT22;23627;53.302;-6.362;2023-12-20T03:11:14;7.50;99.90
37788;DHT22;23627;53.302;-6.362;2023-12-20T03:13:40;7.50;99.90
37788;DHT22;23627;53.302;-6.362;2023-12-20T03:16:13;7.50;99.90
37788;DHT22;23627;53.302;-6.362;2023-12-20T03:18:39;7.50;99.90
37788;DHT22;23627;53.302;-6.362;2023-12-20T03:21:05;7.50;99.90
37788;DHT22;23627;53.302;-6.362;2023-12-20T03:23:31;7.50;99.90
37788;DHT22;23627;53.302;-6.362;2023-12-20T03:25:58;7.50;99.90
37788;DHT22;23627;53.302;-6.362;2023-12-20T03:28:24;7.50;99.90
37788;DHT22;23627;53.302;-6.362;2023-12-20T03:30:50;7.50;99.90
37788;DHT22;23627;53.302;-6.362;2023-12-20T03:33:16;7.50;99.90
37788;DHT22;23627;53.302;-6.362;2023-12-20T03:35:41;7.60;99.90
37788;DHT22;23627;53.302;-6.362;2023-12-20T03:38:07;7.60;99.90
37788;DHT22;23627;53.302;-6.362;2023-12-20T03:40:33;7.60;99.90
37788;DHT22;23627;53.302;-6.362;2023-12-20T03:42:59;7.60;99.90
37788;DHT22;23627;53.302;-6.362;2023-12-20T03:45:24;7.60;99.90
37788;DHT22;23627;53.302;-6.362;2023-12-20T03:47:50;7.60;99.90
37788;DHT22;23627;53.302;-6.362;2023-12-20T03:50:22;7.60;99.90
37788;DHT22;23627;53.302;-6.362;2023-12-20T03:52:47;7.60;99.90
37788;DHT22;23627;53.302;-6.362;2023-12-20T03:55:13;7.60;99.90
37788;DHT22;23627;53.302;-6.362;2023-12-20T03:57:39;7.60;99.90
37788;DHT22;23627;53.302;-6.362;2023-12-20T04:00:06;7.60;99.90
37788;DHT22;23627;53.302;-6.362;2023-12-20T04:02:36;7.60;99.90
37788;DHT22;23627;53.302;-6.362;2023-12-20T04:05:02;7.60;99.90
37788;DHT22;23627;53.302;-6.362;2023-12-20T04:07:27;7.60;99.90
37788;DHT22;23627;53.302;-6.362;2023-12-20T04:09:53;7.60;99.90
37788;DHT22;23627;53.302;-6.362;2023-12-20T04:12:19;7.70;99.90
37788;DHT22;23627;53.302;-6.362;2023-12-20T04:14:44;7.70;99.90
37788;DHT22;23627;53.302;-6.362;2023-12-20T04:17:10;7.70;99.90
37788;DHT22;23627;53.302;-6.362;2023-12-20T04:19:36;7.70;99.90
37788;DHT22;23627;53.302;-6.362;2023-12-20T04:22:02;7.70;99.90
37788;DHT22;23627;53.302;-6.362;2023-12-20T04:24:27;7.70;99.90
37788;DHT22;23627;53.302;-6.362;2023-12-20T04:26:53;7.70;99.90
37788;DHT22;23627;53.302;-6.362;2023-12-20T04:29:19;7.70;99.90
37788;DHT22;23627;53.302;-6.362;2023-12-20T04:31:44;7.70;99.90
37788;DHT22;23627;53.302;-6.362;2023-12-20T04:34:10;7.70;99.90
37788;DHT22;23627;53.302;-6.362;2023-12-20T04:36:36;7.80;99.90
37788;DHT22;23627;53.302;-6.362;2023-12-20T04:39:01;7.70;99.90
37788;DHT22;23627;53.302;-6.362;2023-12-20T04:41:28;7.80;99.90
37788;DHT22;23627;53.302;-6.362;2023-12-20T04:43:54;7.80;99.90
37788;DHT22;23627;53.302;-6.362;2023-12-20T04:46:19;7.70;99.90
37788;DHT22;23627;53.302;-6.362;2023-12-20T04:48:45;7.80;99.90
37788;DHT22;23627;53.302;-6.362;2023-12-20T04:51:11;7.80;99.90
37788;DHT22;23627;53.302;-6.362;2023-12-20T04:53:36;7.80;99.90
37788;DHT22;23627;53.302;-6.362;2023-12-20T04:56:02;7.80;99.90
37788;DHT22;23627;53.302;-6.362;2023-12-20T04:58:28;7.80;99.90
37788;DHT22;23627;53.302;-6.362;2023-12-20T05:00:54;7.80;99.90
37788;DHT22;23627;53.302;-6.362;2023-12-20T05:03:20;7.80;99.90
37788;DHT22;23627;53.302;-6.362;2023-12-20T05:05:46;7.80;99.90
37788;DHT22;23627;53.302;-6.362;2023-12-20T05:08:11;7.80;99.90
37788;DHT22;23627;53.302;-6.362;2023-12-20T05:10:37;7.80;99.90
37788;DHT22;23627;53.302;-6.362;2023-12-20T05:13:03;7.90;99.90
37788;DHT22;23627;53.302;-6.362;2023-12-20T05:15:29;7.90;99.90
37788;DHT22;23627;53.302;-6.362;2023-12-20T05:17:54;7.90;99.90
37788;DHT22;23627;53.302;-6.362;2023-12-20T05:20:20;7.90;99.90
37788;DHT22;23627;53.302;-6.362;2023-12-20T05:22:45;7.90;99.90
37788;DHT22;23627;53.302;-6.362;2023-12-20T05:25:12;7.90;99.90
37788;DHT22;23627;53.302;-6.362;2023-12-20T05:27:38;7.90;99.90
37788;DHT22;23627;53.302;-6.362;2023-12-20T05:30:04;7.90;99.90
37788;DHT22;23627;53.302;-6.362;2023-12-20T05:32:30;7.90;99.90
37788;DHT22;23627;53.302;-6.362;2023-12-20T05:34:56;7.90;99.90
37788;DHT22;23627;53.302;-6.362;2023-12-20T05:37:22;7.90;99.90
37788;DHT22;23627;53.302;-6.362;2023-12-20T05:39:48;7.90;99.90
37788;DHT22;23627;53.302;-6.362;2023-12-20T05:42:13;7.90;99.90
37788;DHT22;23627;53.302;-6.362;2023-12-20T05:44:39;7.90;99.90
37788;DHT22;23627;53.302;-6.362;2023-12-20T05:47:05;7.90;99.90
37788;DHT22;23627;53.302;-6.362;2023-12-20T05:49:30;7.90;99.90
37788;DHT22;23627;53.302;-6.362;2023-12-20T05:51:57;7.90;99.90
37788;DHT22;23627;53.302;-6.362;2023-12-20T05:54:22;7.90;99.90
37788;DHT22;23627;53.302;-6.362;2023-12-20T05:56:48;7.90;99.90
37788;DHT22;23627;53.302;-6.362;2023-12-20T05:59:14;7.90;99.90
37788;DHT22;23627;53.302;-6.362;2023-12-20T06:01:40;7.90;99.90
37788;DHT22;23627;53.302;-6.362;2023-12-20T06:04:05;7.90;99.90
37788;DHT22;23627;53.302;-6.362;2023-12-20T06:06:31;7.90;99.90
37788;DHT22;23627;53.302;-6.362;2023-12-20T06:08:57;7.90;99.90
37788;DHT22;23627;53.302;-6.362;2023-12-20T06:11:23;8.00;99.90
37788;DHT22;23627;53.302;-6.362;2023-12-20T06:13:49;8.00;99.90
37788;DHT22;23627;53.302;-6.362;2023-12-20T06:16:18;8.00;99.90
37788;DHT22;23627;53.302;-6.362;2023-12-20T06:18:44;8.00;99.90
37788;DHT22;23627;53.302;-6.362;2023-12-20T06:21:09;8.00;99.90
37788;DHT22;23627;53.302;-6.362;2023-12-20T06:23:38;8.00;99.90
37788;DHT22;23627;53.302;-6.362;2023-12-20T06:26:04;8.00;99.90
37788;DHT22;23627;53.302;-6.362;2023-12-20T06:28:30;8.00;99.90
37788;DHT22;23627;53.302;-6.362;2023-12-20T06:30:55;8.00;99.90
37788;DHT22;23627;53.302;-6.362;2023-12-20T06:33:22;8.10;99.90
37788;DHT22;23627;53.302;-6.362;2023-12-20T06:35:49;8.10;99.90
37788;DHT22;23627;53.302;-6.362;2023-12-20T06:38:15;8.10;99.90
37788;DHT22;23627;53.302;-6.362;2023-12-20T06:40:40;8.10;99.90
37788;DHT22;23627;53.302;-6.362;2023-12-20T06:43:06;8.10;99.90
37788;DHT22;23627;53.302;-6.362;2023-12-20T06:45:32;8.20;99.90
37788;DHT22;23627;53.302;-6.362;2023-12-20T06:47:58;8.20;99.90
37788;DHT22;23627;53.302;-6.362;2023-12-20T06:50:24;8.20;99.90
37788;DHT22;23627;53.302;-6.362;2023-12-20T06:52:50;8.20;99.90
37788;DHT22;23627;53.302;-6.362;2023-12-20T06:55:16;8.20;99.90
37788;DHT22;23627;53.302;-6.362;2023-12-20T06:57:42;8.20;99.90
37788;DHT22;23627;53.302;-6.362;2023-12-20T07:00:09;8.20;99.90
37788;DHT22;23627;53.302;-6.362;2023-12-20T07:02:36;8.30;99.90
37788;DHT22;23627;53.302;-6.362;2023-12-20T07:05:02;8.30;99.90
37788;DHT22;23627;53.302;-6.362;2023-12-20T07:07:27;8.30;99.90
37788;DHT22;23627;53.302;-6.362;2023-12-20T07:09:53;8.30;99.90
37788;DHT22;23627;53.302;-6.362;2023-12-20T07:12:19;8.30;99.90
37788;DHT22;23627;53.302;-6.362;2023-12-20T07:14:45;8.30;99.90
37788;DHT22;23627;53.302;-6.362;2023-12-20T07:17:11;8.40;99.90
37788;DHT22;23627;53.302;-6.362;2023-12-20T07:19:39;8.30;99.90
37788;DHT22;23627;53.302;-6.362;2023-12-20T07:22:06;8.40;99.90
37788;DHT22;23627;53.302;-6.362;2023-12-20T07:24:32;8.40;99.90
37788;DHT22;23627;53.302;-6.362;2023-12-20T07:27:02;8.40;99.90
37788;DHT22;23627;53.302;-6.362;2023-12-20T07:29:28;8.40;99.90
37788;DHT22;23627;53.302;-6.362;2023-12-20T07:31:54;8.40;99.90
37788;DHT22;23627;53.302;-6.362;2023-12-20T07:34:20;8.40;99.90
37788;DHT22;23627;53.302;-6.362;2023-12-20T07:36:46;8.40;99.90
37788;DHT22;23627;53.302;-6.362;2023-12-20T07:39:12;8.40;99.90
37788;DHT22;23627;53.302;-6.362;2023-12-20T07:41:38;8.40;99.90
37788;DHT22;23627;53.302;-6.362;2023-12-20T07:44:04;8.50;99.90
37788;DHT22;23627;53.302;-6.362;2023-12-20T07:46:30;8.50;99.90
37788;DHT22;23627;53.302;-6.362;2023-12-20T07:48:56;8.50;99.90
37788;DHT22;23627;53.302;-6.362;2023-12-20T07:51:21;8.50;99.90
37788;DHT22;23627;53.302;-6.362;2023-12-20T07:53:47;8.50;99.90
37788;DHT22;23627;53.302;-6.362;2023-12-20T07:56:17;8.50;99.90
37788;DHT22;23627;53.302;-6.362;2023-12-20T07:58:44;8.50;99.90
37788;DHT22;23627;53.302;-6.362;2023-12-20T08:01:11;8.50;99.90
37788;DHT22;23627;53.302;-6.362;2023-12-20T08:03:37;8.50;99.90
37788;DHT22;23627;53.302;-6.362;2023-12-20T08:06:03;8.50;99.90
37788;DHT22;23627;53.302;-6.362;2023-12-20T08:08:29;8.50;99.90
37788;DHT22;23627;53.302;-6.362;2023-12-20T08:10:55;8.50;99.90
37788;DHT22;23627;53.302;-6.362;2023-12-20T08:13:23;8.50;99.90
37788;DHT22;23627;53.302;-6.362;2023-12-20T08:15:51;8.50;99.90
37788;DHT22;23627;53.302;-6.362;2023-12-20T08:18:17;8.50;99.90
37788;DHT22;23627;53.302;-6.362;2023-12-20T08:20:43;8.60;99.90
37788;DHT22;23627;53.302;-6.362;2023-12-20T08:23:09;8.60;99.90
37788;DHT22;23627;53.302;-6.362;2023-12-20T08:25:35;8.60;99.90
37788;DHT22;23627;53.302;-6.362;2023-12-20T08:28:02;8.60;99.90
37788;DHT22;23627;53.302;-6.362;2023-12-20T08:30:28;8.60;99.90
37788;DHT22;23627;53.302;-6.362;2023-12-20T08:32:55;8.60;99.90
37788;DHT22;23627;53.302;-6.362;2023-12-20T08:35:21;8.60;99.90
37788;DHT22;23627;53.302;-6.362;2023-12-20T08:37:46;8.60;99.90
37788;DHT22;23627;53.302;-6.362;2023-12-20T08:40:12;8.60;99.90
37788;DHT22;23627;53.302;-6.362;2023-12-20T08:42:39;8.60;99.90
37788;DHT22;23627;53.302;-6.362;2023-12-20T08:45:05;8.60;99.90
37788;DHT22;23627;53.302;-6.362;2023-12-20T08:47:30;8.70;99.90
37788;DHT22;23627;53.302;-6.362;2023-12-20T08:49:56;8.70;99.90
37788;DHT22;23627;53.302;-6.362;2023-12-20T08:52:24;8.70;99.90
37788;DHT22;23627;53.302;-6.362;2023-12-20T08:54:52;8.70;99.90
37788;DHT22;23627;53.302;-6.362;2023-12-20T08:57:22;8.70;99.90
37788;DHT22;23627;53.302;-6.362;2023-12-20T08:59:51;8.70;99.90
37788;DHT22;23627;53.302;-6.362;2023-12-20T09:02:17;8.70;99.90
37788;DHT22;23627;53.302;-6.362;2023-12-20T09:04:43;8.70;99.90
37788;DHT22;23627;53.302;-6.362;2023-12-20T09:07:22;8.70;99.90
37788;DHT22;23627;53.302;-6.362;2023-12-20T09:09:48;8.70;99.90
37788;DHT22;23627;53.302;-6.362;2023-12-20T09:12:14;8.80;99.90
37788;DHT22;23627;53.302;-6.362;2023-12-20T09:14:40;8.80;99.90
37788;DHT22;23627;53.302;-6.362;2023-12-20T09:17:06;8.80;99.90
37788;DHT22;23627;53.302;-6.362;2023-12-20T09:19:34;8.80;99.90
37788;DHT22;23627;53.302;-6.362;2023-12-20T09:22:00;8.80;99.90
37788;DHT22;23627;53.302;-6.362;2023-12-20T09:24:26;8.80;99.90
37788;DHT22;23627;53.302;-6.362;2023-12-20T09:26:52;8.80;99.90
37788;DHT22;23627;53.302;-6.362;2023-12-20T09:29:18;8.90;99.90
37788;DHT22;23627;53.302;-6.362;2023-12-20T09:31:44;8.90;99.90
37788;DHT22;23627;53.302;-6.362;2023-12-20T09:34:11;8.90;99.90
37788;DHT22;23627;53.302;-6.362;2023-12-20T09:36:37;8.90;99.90
37788;DHT22;23627;53.302;-6.362;2023-12-20T09:39:06;8.90;99.90
37788;DHT22;23627;53.302;-6.362;2023-12-20T09:41:33;8.90;99.90
37788;DHT22;23627;53.302;-6.362;2023-12-20T09:44:03;8.90;99.90
37788;DHT22;23627;53.302;-6.362;2023-12-20T09:46:32;8.90;99.90
37788;DHT22;23627;53.302;-6.362;2023-12-20T09:49:00;8.90;99.90
37788;DHT22;23627;53.302;-6.362;2023-12-20T09:51:29;8.90;99.90
37788;DHT22;23627;53.302;-6.362;2023-12-20T09:53:55;9.00;99.90
37788;DHT22;23627;53.302;-6.362;2023-12-20T09:56:23;9.00;99.90
37788;DHT22;23627;53.302;-6.362;2023-12-20T09:58:49;9.00;99.90
37788;DHT22;23627;53.302;-6.362;2023-12-20T10:01:16;9.00;99.90
37788;DHT22;23627;53.302;-6.362;2023-12-20T10:03:42;9.10;99.90
37788;DHT22;23627;53.302;-6.362;2023-12-20T10:06:08;9.10;99.90
37788;DHT22;23627;53.302;-6.362;2023-12-20T10:08:34;9.10;99.90
37788;DHT22;23627;53.302;-6.362;2023-12-20T10:11:01;9.20;99.90
37788;DHT22;23627;53.302;-6.362;2023-12-20T10:13:28;9.20;99.90
37788;DHT22;23627;53.302;-6.362;2023-12-20T10:15:55;9.10;99.90
37788;DHT22;23627;53.302;-6.362;2023-12-20T10:18:21;9.20;99.90
37788;DHT22;23627;53.302;-6.362;2023-12-20T10:20:48;9.20;99.90
37788;DHT22;23627;53.302;-6.362;2023-12-20T10:23:15;9.20;99.90
37788;DHT22;23627;53.302;-6.362;2023-12-20T10:25:41;9.20;99.90
37788;DHT22;23627;53.302;-6.362;2023-12-20T10:28:16;9.20;99.90
37788;DHT22;23627;53.302;-6.362;2023-12-20T10:30:48;9.30;99.90
37788;DHT22;23627;53.302;-6.362;2023-12-20T10:33:26;9.20;99.90
37788;DHT22;23627;53.302;-6.362;2023-12-20T10:35:55;9.30;99.90
37788;DHT22;23627;53.302;-6.362;2023-12-20T10:38:21;9.30;99.90
37788;DHT22;23627;53.302;-6.362;2023-12-20T10:40:47;9.30;99.90
37788;DHT22;23627;53.302;-6.362;2023-12-20T10:43:15;9.30;99.90
37788;DHT22;23627;53.302;-6.362;2023-12-20T10:45:44;9.30;99.90
37788;DHT22;23627;53.302;-6.362;2023-12-20T10:48:10;9.30;99.90
37788;DHT22;23627;53.302;-6.362;2023-12-20T10:50:41;9.30;99.90
37788;DHT22;23627;53.302;-6.362;2023-12-20T10:53:07;9.30;99.90
37788;DHT22;23627;53.302;-6.362;2023-12-20T10:55:33;9.40;99.90
37788;DHT22;23627;53.302;-6.362;2023-12-20T10:58:07;9.40;99.90
37788;DHT22;23627;53.302;-6.362;2023-12-20T11:00:35;9.40;99.90
37788;DHT22;23627;53.302;-6.362;2023-12-20T11:03:05;9.40;99.90
37788;DHT22;23627;53.302;-6.362;2023-12-20T11:05:53;9.40;99.90
37788;DHT22;23627;53.302;-6.362;2023-12-20T11:08:39;9.40;99.90
37788;DHT22;23627;53.302;-6.362;2023-12-20T11:11:23;9.40;99.90
37788;DHT22;23627;53.302;-6.362;2023-12-20T11:14:02;9.40;99.90
37788;DHT22;23627;53.302;-6.362;2023-12-20T11:16:31;9.40;99.90
37788;DHT22;23627;53.302;-6.362;2023-12-20T11:18:57;9.40;99.90
37788;DHT22;23627;53.302;-6.362;2023-12-20T11:21:23;9.40;99.90
37788;DHT22;23627;53.302;-6.362;2023-12-20T11:23:52;9.40;99.90
37788;DHT22;23627;53.302;-6.362;2023-12-20T11:26:23;9.40;99.90
37788;DHT22;23627;53.302;-6.362;2023-12-20T11:28:52;9.40;99.90
37788;DHT22;23627;53.302;-6.362;2023-12-20T11:31:18;9.40;99.90
37788;DHT22;23627;53.302;-6.362;2023-12-20T11:33:44;9.40;99.90
37788;DHT22;23627;53.302;-6.362;2023-12-20T11:36:14;9.50;99.90
37788;DHT22;23627;53.302;-6.362;2023-12-20T11:38:57;9.50;99.90
37788;DHT22;23627;53.302;-6.362;2023-12-20T11:41:26;9.50;99.90
37788;DHT22;23627;53.302;-6.362;2023-12-20T11:43:56;9.50;99.90
37788;DHT22;23627;53.302;-6.362;2023-12-20T11:46:22;9.50;99.90
37788;DHT22;23627;53.302;-6.362;2023-12-20T11:48:48;9.50;99.90
37788;DHT22;23627;53.302;-6.362;2023-12-20T11:51:14;9.50;99.90
37788;DHT22;23627;53.302;-6.362;2023-12-20T11:53:40;9.50;99.90
37788;DHT22;23627;53.302;-6.362;2023-12-20T11:56:08;9.50;99.90
37788;DHT22;23627;53.302;-6.362;2023-12-20T11:58:34;9.60;99.90
37788;DHT22;23627;53.302;-6.362;2023-12-20T12:01:01;9.60;99.90
37788;DHT22;23627;53.302;-6.362;2023-12-20T12:03:32;9.60;99.90
37788;DHT22;23627;53.302;-6.362;2023-12-20T12:05:58;9.60;99.90
37788;DHT22;23627;53.302;-6.362;2023-12-20T12:08:24;9.60;99.90
37788;DHT22;23627;53.302;-6.362;2023-12-20T12:10:50;9.70;99.90
37788;DHT22;23627;53.302;-6.362;2023-12-20T12:13:16;9.70;99.90
37788;DHT22;23627;53.302;-6.362;2023-12-20T12:15:42;9.70;99.90
37788;DHT22;23627;53.302;-6.362;2023-12-20T12:18:08;9.70;99.90
37788;DHT22;23627;53.302;-6.362;2023-12-20T12:20:35;9.80;99.90
37788;DHT22;23627;53.302;-6.362;2023-12-20T12:23:05;9.80;99.90
37788;DHT22;23627;53.302;-6.362;2023-12-20T12:25:35;9.80;99.90
37788;DHT22;23627;53.302;-6.362;2023-12-20T12:28:01;9.80;99.90
37788;DHT22;23627;53.302;-6.362;2023-12-20T12:30:27;9.90;99.90
37788;DHT22;23627;53.302;-6.362;2023-12-20T12:32:55;9.90;99.90
37788;DHT22;23627;53.302;-6.362;2023-12-20T12:35:22;9.90;99.90
37788;DHT22;23627;53.302;-6.362;2023-12-20T12:37:47;9.90;99.90
37788;DHT22;23627;53.302;-6.362;2023-12-20T12:40:15;9.90;99.90
37788;DHT22;23627;53.302;-6.362;2023-12-20T12:42:42;9.90;99.90
37788;DHT22;23627;53.302;-6.362;2023-12-20T12:45:09;9.90;99.90
37788;DHT22;23627;53.302;-6.362;2023-12-20T12:47:35;10.00;99.90
37788;DHT22;23627;53.302;-6.362;2023-12-20T12:50:01;10.00;99.90
37788;DHT22;23627;53.302;-6.362;2023-12-20T12:52:27;10.00;99.90
37788;DHT22;23627;53.302;-6.362;2023-12-20T12:54:53;10.00;99.90
37788;DHT22;23627;53.302;-6.362;2023-12-20T12:57:19;10.00;99.90
37788;DHT22;23627;53.302;-6.362;2023-12-20T12:59:46;10.00;99.90
37788;DHT22;23627;53.302;-6.362;2023-12-20T13:02:15;10.00;99.90
37788;DHT22;23627;53.302;-6.362;2023-12-20T13:04:41;10.00;99.90
37788;DHT22;23627;53.302;-6.362;2023-12-20T13:07:08;10.00;99.90
37788;DHT22;23627;53.302;-6.362;2023-12-20T13:09:38;10.10;99.90
37788;DHT22;23627;53.302;-6.362;2023-12-20T13:12:05;10.10;99.90
37788;DHT22;23627;53.302;-6.362;2023-12-20T13:14:35;10.10;99.90
37788;DHT22;23627;53.302;-6.362;2023-12-20T13:17:03;10.10;99.90
37788;DHT22;23627;53.302;-6.362;2023-12-20T13:19:29;10.10;99.90
37788;DHT22;23627;53.302;-6.362;2023-12-20T13:21:56;10.10;99.90
37788;DHT22;23627;53.302;-6.362;2023-12-20T13:24:21;10.10;99.90
37788;DHT22;23627;53.302;-6.362;2023-12-20T13:26:47;10.10;99.90
37788;DHT22;23627;53.302;-6.362;2023-12-20T13:29:13;10.10;99.90
37788;DHT22;23627;53.302;-6.362;2023-12-20T13:31:39;10.10;99.90
37788;DHT22;23627;53.302;-6.362;2023-12-20T13:34:06;10.10;99.90
37788;DHT22;23627;53.302;-6.362;2023-12-20T13:36:32;10.10;99.90
37788;DHT22;23627;53.302;-6.362;2023-12-20T13:38:57;10.10;99.90
37788;DHT22;23627;53.302;-6.362;2023-12-20T13:41:23;10.10;99.90
37788;DHT22;23627;53.302;-6.362;2023-12-20T13:43:49;10.10;99.90
37788;DHT22;23627;53.302;-6.362;2023-12-20T13:46:15;10.10;99.90
37788;DHT22;23627;53.302;-6.362;2023-12-20T13:48:40;10.10;99.90
37788;DHT22;23627;53.302;-6.362;2023-12-20T13:51:07;10.10;99.90
37788;DHT22;23627;53.302;-6.362;2023-12-20T13:53:33;10.10;99.90
37788;DHT22;23627;53.302;-6.362;2023-12-20T13:55:58;10.20;99.90
37788;DHT22;23627;53.302;-6.362;2023-12-20T13:58:25;10.20;99.90
37788;DHT22;23627;53.302;-6.362;2023-12-20T14:00:51;10.20;99.90
37788;DHT22;23627;53.302;-6.362;2023-12-20T14:03:17;10.20;99.90
37788;DHT22;23627;53.302;-6.362;2023-12-20T14:05:43;10.20;99.90
37788;DHT22;23627;53.302;-6.362;2023-12-20T14:08:09;10.20;99.90
37788;DHT22;23627;53.302;-6.362;2023-12-20T14:10:35;10.20;99.90
37788;DHT22;23627;53.302;-6.362;2023-12-20T14:13:01;10.30;99.90
37788;DHT22;23627;53.302;-6.362;2023-12-20T14:15:27;10.20;99.90
37788;DHT22;23627;53.302;-6.362;2023-12-20T14:17:52;10.20;99.90
37788;DHT22;23627;53.302;-6.362;2023-12-20T14:20:19;10.20;99.90
37788;DHT22;23627;53.302;-6.362;2023-12-20T14:22:44;10.20;99.90
37788;DHT22;23627;53.302;-6.362;2023-12-20T14:25:12;10.20;99.90
37788;DHT22;23627;53.302;-6.362;2023-12-20T14:27:39;10.20;99.90
37788;DHT22;23627;53.302;-6.362;2023-12-20T14:30:06;10.10;99.90
37788;DHT22;23627;53.302;-6.362;2023-12-20T14:32:34;10.10;99.90
37788;DHT22;23627;53.302;-6.362;2023-12-20T14:35:02;10.20;99.90
37788;DHT22;23627;53.302;-6.362;2023-12-20T14:37:29;10.10;99.90
37788;DHT22;23627;53.302;-6.362;2023-12-20T14:39:55;10.10;99.90
37788;DHT22;23627;53.302;-6.362;2023-12-20T14:45:10;10.10;99.90
37788;DHT22;23627;53.302;-6.362;2023-12-20T14:47:36;10.10;99.90
37788;DHT22;23627;53.302;-6.362;2023-12-20T14:50:05;10.10;99.90
37788;DHT22;23627;53.302;-6.362;2023-12-20T14:52:33;10.10;99.90
37788;DHT22;23627;53.302;-6.362;2023-12-20T14:55:02;10.10;99.90
37788;DHT22;23627;53.302;-6.362;2023-12-20T14:57:28;10.20;99.90
37788;DHT22;23627;53.302;-6.362;2023-12-20T14:59:57;10.10;99.90
37788;DHT22;23627;53.302;-6.362;2023-12-20T15:02:22;10.20;99.90
37788;DHT22;23627;53.302;-6.362;2023-12-20T15:04:48;10.10;99.90
37788;DHT22;23627;53.302;-6.362;2023-12-20T15:07:15;10.10;99.90
37788;DHT22;23627;53.302;-6.362;2023-12-20T15:09:42;10.20;99.90
37788;DHT22;23627;53.302;-6.362;2023-12-20T15:12:11;10.20;99.90
37788;DHT22;23627;53.302;-6.362;2023-12-20T15:14:38;10.20;99.90
37788;DHT22;23627;53.302;-6.362;2023-12-20T15:17:03;10.20;99.90
37788;DHT22;23627;53.302;-6.362;2023-12-20T15:19:30;10.20;99.90
37788;DHT22;23627;53.302;-6.362;2023-12-20T15:21:56;10.20;99.90
37788;DHT22;23627;53.302;-6.362;2023-12-20T15:24:24;10.20;99.90
37788;DHT22;23627;53.302;-6.362;2023-12-20T15:26:54;10.20;99.90